Time;durP1;ratioP1;P1;durP2;ratioP2;P2;SDS_P1;SDS_P2;PMS_P1;PMS_P2;Temp;Humidity;BMP_temperature;BMP_pressure;BME280_temperature;BME280_humidity;BME280_pressure;Samples;Min_cycle;Max_cycle;Signal;HPM_P1;HPM_P2
2021/06/23 00:00:51;;;;;;;;;;;11.20;89.40;;;;;;5059369;28;20580;-66
2021/06/23 00:03:17;;;;;;;;;;;11.30;89.30;;;;;;5053150;28;19928;-66
2021/06/23 00:05:42;;;;;;;;;;;11.20;89.40;;;;;;5060784;28;20365;-64
2021/06/23 00:08:08;;;;;;;;;;;11.20;89.50;;;;;;5055656;28;19931;-65
2021/06/23 00:10:33;;;;;;;;;;;11.20;89.50;;;;;;5058984;28;20298;-65
2021/06/23 00:13:05;;;;;;;;;;;11.20;90.10;;;;;;5058198;28;19924;-65
2021/06/23 00:15:30;;;;;;;;;;;11.20;90.00;;;;;;5056369;28;19956;-65
2021/06/23 00:17:56;;;;;;;;;;;11.10;90.10;;;;;;5055475;28;19987;-65
2021/06/23 00:20:22;;;;;;;;;;;11.20;90.20;;;;;;5061073;28;20421;-64
2021/06/23 00:22:47;;;;;;;;;;;11.20;90.40;;;;;;5052951;28;19916;-64
2021/06/23 00:25:13;;;;;;;;;;;11.10;90.40;;;;;;5059464;28;19951;-65
2021/06/23 00:27:39;;;;;;;;;;;11.10;90.30;;;;;;5041735;28;20266;-65
2021/06/23 00:30:05;;;;;;;;;;;11.10;90.10;;;;;;5052843;28;20015;-66
2021/06/23 00:32:31;;;;;;;;;;;11.00;90.50;;;;;;5061314;28;20367;-66
2021/06/23 00:34:57;;;;;;;;;;;10.90;90.60;;;;;;5041354;28;19965;-67
2021/06/23 00:37:22;;;;;;;;;;;10.80;90.60;;;;;;5055567;28;20349;-66
2021/06/23 00:39:48;;;;;;;;;;;10.80;90.60;;;;;;5052250;28;19916;-67
2021/06/23 00:42:13;;;;;;;;;;;10.80;91.00;;;;;;5062040;28;20040;-66
2021/06/23 00:44:40;;;;;;;;;;;10.60;91.20;;;;;;5059661;28;20387;-66
2021/06/23 00:47:05;;;;;;;;;;;10.50;91.40;;;;;;5057031;28;19916;-67
2021/06/23 00:49:32;;;;;;;;;;;10.50;91.90;;;;;;5057606;28;20439;-67
2021/06/23 00:51:59;;;;;;;;;;;10.40;92.20;;;;;;5051581;28;20277;-66
2021/06/23 00:54:24;;;;;;;;;;;10.30;92.20;;;;;;5056022;28;20238;-66
2021/06/23 00:56:50;;;;;;;;;;;10.30;92.40;;;;;;5059984;28;19916;-66
2021/06/23 00:59:15;;;;;;;;;;;10.20;92.30;;;;;;5036761;28;20474;-67
2021/06/23 01:01:42;;;;;;;;;;;10.20;92.70;;;;;;5057290;28;19920;-65
2021/06/23 01:04:07;;;;;;;;;;;10.10;92.50;;;;;;5055025;28;20253;-66
2021/06/23 01:06:33;;;;;;;;;;;10.20;92.70;;;;;;5052154;28;19912;-67
2021/06/23 01:08:59;;;;;;;;;;;10.10;92.80;;;;;;5061468;28;20346;-67
2021/06/23 01:11:27;;;;;;;;;;;10.10;92.70;;;;;;5047606;28;19921;-67
2021/06/23 01:14:03;;;;;;;;;;;10.10;92.80;;;;;;5061651;28;19987;-67
2021/06/23 01:16:30;;;;;;;;;;;10.10;92.70;;;;;;5056068;28;19978;-67
2021/06/23 01:18:57;;;;;;;;;;;10.10;93.00;;;;;;5060991;28;19970;-66
2021/06/23 01:21:23;;;;;;;;;;;10.10;92.90;;;;;;5046723;28;19924;-66
2021/06/23 01:23:48;;;;;;;;;;;10.10;93.00;;;;;;5052693;28;19919;-67
2021/06/23 01:26:14;;;;;;;;;;;10.00;92.90;;;;;;5064196;28;19917;-67
2021/06/23 01:28:39;;;;;;;;;;;9.90;92.20;;;;;;5050885;28;19935;-66
2021/06/23 01:31:05;;;;;;;;;;;9.90;92.70;;;;;;5043570;28;19916;-66
2021/06/23 01:33:33;;;;;;;;;;;9.80;93.40;;;;;;5051657;28;19916;-67
2021/06/23 01:35:59;;;;;;;;;;;9.80;93.60;;;;;;5063817;28;20011;-67
2021/06/23 01:38:25;;;;;;;;;;;9.80;93.50;;;;;;5060938;28;20305;-66
2021/06/23 01:40:50;;;;;;;;;;;9.80;93.80;;;;;;5053933;28;20301;-67
2021/06/23 01:43:16;;;;;;;;;;;9.90;93.80;;;;;;5055364;28;19928;-67
2021/06/23 01:45:45;;;;;;;;;;;10.00;93.60;;;;;;5061948;28;19913;-66
2021/06/23 01:48:12;;;;;;;;;;;10.00;93.60;;;;;;5052362;28;19916;-66
2021/06/23 01:50:38;;;;;;;;;;;10.00;93.40;;;;;;5053332;28;20296;-67
2021/06/23 01:53:03;;;;;;;;;;;10.10;93.60;;;;;;5062905;28;19916;-66
2021/06/23 01:55:29;;;;;;;;;;;10.10;93.50;;;;;;5060556;28;19923;-66
2021/06/23 01:57:59;;;;;;;;;;;10.10;93.40;;;;;;5057246;28;19920;-67
2021/06/23 02:00:29;;;;;;;;;;;10.10;93.40;;;;;;5058366;28;19924;-66
2021/06/23 02:02:58;;;;;;;;;;;10.10;93.50;;;;;;5058743;28;20304;-67
2021/06/23 02:05:43;;;;;;;;;;;10.20;93.30;;;;;;5059746;28;19920;-66
2021/06/23 02:08:15;;;;;;;;;;;10.20;93.10;;;;;;5055353;28;19913;-66
2021/06/23 02:11:00;;;;;;;;;;;10.20;93.10;;;;;;5039665;28;19916;-66
2021/06/23 02:13:28;;;;;;;;;;;10.20;93.10;;;;;;5061560;28;20003;-67
2021/06/23 02:16:01;;;;;;;;;;;10.20;93.10;;;;;;5056128;28;19947;-67
2021/06/23 02:18:27;;;;;;;;;;;10.30;93.30;;;;;;5062762;28;20349;-67
2021/06/23 02:20:54;;;;;;;;;;;10.20;93.00;;;;;;5061825;28;20007;-67
2021/06/23 02:23:21;;;;;;;;;;;10.30;93.10;;;;;;5059051;28;20024;-67
2021/06/23 02:25:46;;;;;;;;;;;10.20;92.90;;;;;;5060811;28;19916;-66
2021/06/23 02:28:12;;;;;;;;;;;10.10;93.00;;;;;;5058386;28;20288;-67
2021/06/23 02:30:38;;;;;;;;;;;10.10;93.30;;;;;;5052416;28;19932;-67
2021/06/23 02:33:04;;;;;;;;;;;10.10;93.40;;;;;;5060769;28;20003;-66
2021/06/23 02:35:30;;;;;;;;;;;10.10;93.40;;;;;;5034849;28;20397;-66
2021/06/23 02:37:58;;;;;;;;;;;10.00;93.60;;;;;;5061393;28;19996;-67
2021/06/23 02:40:23;;;;;;;;;;;10.00;93.60;;;;;;5035937;28;20453;-66
2021/06/23 02:42:49;;;;;;;;;;;9.90;93.90;;;;;;5057682;28;20003;-67
2021/06/23 02:45:15;;;;;;;;;;;9.90;94.10;;;;;;5054780;28;19982;-67
2021/06/23 02:47:40;;;;;;;;;;;9.90;94.20;;;;;;5058504;28;19912;-67
2021/06/23 02:50:06;;;;;;;;;;;10.00;94.10;;;;;;5056406;28;19932;-67
2021/06/23 02:52:34;;;;;;;;;;;10.00;93.80;;;;;;5057097;28;19991;-67
2021/06/23 02:55:00;;;;;;;;;;;10.00;93.60;;;;;;5060247;28;20160;-67
2021/06/23 02:57:26;;;;;;;;;;;10.10;93.70;;;;;;5057428;28;19919;-67
2021/06/23 02:59:52;;;;;;;;;;;10.10;93.70;;;;;;5059328;28;20255;-67
2021/06/23 03:02:17;;;;;;;;;;;10.10;93.50;;;;;;5062960;28;19913;-70
2021/06/23 03:04:47;;;;;;;;;;;10.00;93.60;;;;;;5062278;28;20444;-66
2021/06/23 03:07:13;;;;;;;;;;;10.10;93.80;;;;;;5064308;28;19916;-67
2021/06/23 03:09:39;;;;;;;;;;;10.10;93.80;;;;;;5059946;28;20008;-67
2021/06/23 03:12:06;;;;;;;;;;;10.10;93.60;;;;;;5058735;28;19927;-67
2021/06/23 03:14:31;;;;;;;;;;;10.10;93.90;;;;;;5063186;28;19939;-67
2021/06/23 03:16:58;;;;;;;;;;;10.10;93.90;;;;;;5059600;28;19921;-67
2021/06/23 03:19:25;;;;;;;;;;;10.10;93.90;;;;;;5061652;28;19924;-67
2021/06/23 03:21:50;;;;;;;;;;;10.10;93.80;;;;;;5065029;28;19999;-66
2021/06/23 03:24:16;;;;;;;;;;;10.20;93.70;;;;;;5057812;28;19996;-66
2021/06/23 03:26:41;;;;;;;;;;;10.10;93.60;;;;;;5061259;28;19919;-66
2021/06/23 03:29:16;;;;;;;;;;;10.10;93.80;;;;;;5064889;28;19920;-66
2021/06/23 03:31:43;;;;;;;;;;;10.20;93.90;;;;;;5060607;28;20003;-66
2021/06/23 03:34:09;;;;;;;;;;;10.20;93.70;;;;;;5047402;28;19925;-67
2021/06/23 03:36:34;;;;;;;;;;;10.30;93.60;;;;;;5059583;28;19923;-67
2021/06/23 03:39:00;;;;;;;;;;;10.30;93.60;;;;;;5064195;28;20054;-68
2021/06/23 03:41:25;;;;;;;;;;;10.30;93.50;;;;;;5062433;28;19920;-67
2021/06/23 03:43:51;;;;;;;;;;;10.40;93.40;;;;;;5060250;28;19919;-67
2021/06/23 03:46:16;;;;;;;;;;;10.40;93.40;;;;;;5064588;28;19958;-68
2021/06/23 03:48:42;;;;;;;;;;;10.50;93.50;;;;;;5064559;28;19920;-67
2021/06/23 03:51:07;;;;;;;;;;;10.50;93.50;;;;;;5057385;28;20332;-67
2021/06/23 03:53:33;;;;;;;;;;;10.60;93.30;;;;;;5058833;28;19924;-67
2021/06/23 03:55:58;;;;;;;;;;;10.70;93.20;;;;;;5064905;28;19916;-67
2021/06/23 03:58:24;;;;;;;;;;;10.80;93.00;;;;;;5038020;28;20349;-67
2021/06/23 04:00:49;;;;;;;;;;;10.90;92.90;;;;;;5056112;28;19990;-66
2021/06/23 04:03:15;;;;;;;;;;;11.00;92.90;;;;;;5063772;28;19958;-67
2021/06/23 04:05:40;;;;;;;;;;;11.10;92.60;;;;;;5063105;28;19925;-67
2021/06/23 04:08:06;;;;;;;;;;;11.10;92.30;;;;;;5057421;28;19963;-67
2021/06/23 04:10:31;;;;;;;;;;;11.20;92.40;;;;;;5064437;28;19931;-67
2021/06/23 04:12:57;;;;;;;;;;;11.30;92.30;;;;;;5051937;28;20214;-68
2021/06/23 04:15:22;;;;;;;;;;;11.30;92.20;;;;;;5063907;28;19912;-67
2021/06/23 04:17:47;;;;;;;;;;;11.30;92.00;;;;;;5064048;28;19971;-67
2021/06/23 04:20:13;;;;;;;;;;;11.30;92.10;;;;;;5065327;28;19917;-67
2021/06/23 04:22:39;;;;;;;;;;;11.40;92.10;;;;;;5061639;28;19916;-67
2021/06/23 04:25:07;;;;;;;;;;;11.50;92.10;;;;;;5063060;28;19922;-67
2021/06/23 04:27:33;;;;;;;;;;;11.50;91.90;;;;;;5063934;28;19940;-67
2021/06/23 04:29:58;;;;;;;;;;;11.60;92.20;;;;;;5061751;28;19916;-67
2021/06/23 04:32:24;;;;;;;;;;;11.60;92.00;;;;;;5049759;28;19917;-68
2021/06/23 04:34:49;;;;;;;;;;;11.60;92.10;;;;;;5060303;28;20011;-67
2021/06/23 04:37:14;;;;;;;;;;;11.60;92.20;;;;;;5063322;28;20312;-66
2021/06/23 04:39:40;;;;;;;;;;;11.60;92.30;;;;;;5061052;28;19929;-67
2021/06/23 04:42:06;;;;;;;;;;;11.70;92.30;;;;;;5057763;28;19925;-67
2021/06/23 04:44:31;;;;;;;;;;;11.70;92.30;;;;;;5062100;28;20015;-67
2021/06/23 04:46:57;;;;;;;;;;;11.70;92.30;;;;;;5063385;28;19997;-67
2021/06/23 04:49:22;;;;;;;;;;;11.80;92.20;;;;;;5053282;28;20299;-66
2021/06/23 04:51:48;;;;;;;;;;;11.90;91.80;;;;;;5052163;28;19924;-67
2021/06/23 04:54:13;;;;;;;;;;;11.90;92.20;;;;;;5063097;28;19916;-68
2021/06/23 04:56:39;;;;;;;;;;;12.00;92.00;;;;;;5062954;28;20285;-67
2021/06/23 04:59:04;;;;;;;;;;;12.00;91.80;;;;;;5062579;28;20010;-68
2021/06/23 05:01:30;;;;;;;;;;;12.10;91.70;;;;;;5061388;28;20329;-67
2021/06/23 05:03:55;;;;;;;;;;;12.20;91.80;;;;;;5058206;28;19913;-67
2021/06/23 05:06:21;;;;;;;;;;;12.30;91.50;;;;;;5054460;28;19999;-68
2021/06/23 05:08:47;;;;;;;;;;;12.50;91.60;;;;;;5058147;28;19912;-67
2021/06/23 05:11:12;;;;;;;;;;;12.70;91.00;;;;;;5055040;28;19932;-68
2021/06/23 05:13:38;;;;;;;;;;;12.80;90.80;;;;;;5054718;28;19920;-68
2021/06/23 05:16:05;;;;;;;;;;;12.90;90.80;;;;;;5057296;28;20370;-68
2021/06/23 05:18:30;;;;;;;;;;;13.00;90.50;;;;;;5057718;28;19926;-67
2021/06/23 05:20:57;;;;;;;;;;;13.00;90.40;;;;;;5053046;28;20003;-67
2021/06/23 05:23:22;;;;;;;;;;;13.20;90.10;;;;;;5060459;28;19924;-66
2021/06/23 05:25:48;;;;;;;;;;;13.30;90.10;;;;;;5061814;28;20203;-68
2021/06/23 05:28:14;;;;;;;;;;;13.40;89.80;;;;;;5062229;28;19924;-67
2021/06/23 05:30:39;;;;;;;;;;;13.50;89.90;;;;;;5059161;28;20408;-68
2021/06/23 05:33:05;;;;;;;;;;;13.60;89.90;;;;;;5060510;28;19974;-67
2021/06/23 05:35:30;;;;;;;;;;;13.70;89.90;;;;;;5063461;28;19913;-68
2021/06/23 05:37:56;;;;;;;;;;;13.80;90.20;;;;;;5061771;28;20055;-68
2021/06/23 05:40:21;;;;;;;;;;;13.90;89.70;;;;;;5046924;28;20422;-68
2021/06/23 05:42:47;;;;;;;;;;;13.80;89.60;;;;;;5056651;28;20011;-68
2021/06/23 05:45:12;;;;;;;;;;;14.00;89.50;;;;;;5056577;28;20268;-68
2021/06/23 05:47:38;;;;;;;;;;;14.00;89.50;;;;;;5061975;28;19966;-68
2021/06/23 05:50:04;;;;;;;;;;;14.00;89.00;;;;;;5063379;28;20293;-68
2021/06/23 05:52:29;;;;;;;;;;;14.10;89.00;;;;;;5051790;28;19946;-68
2021/06/23 05:54:56;;;;;;;;;;;14.00;89.10;;;;;;5060856;28;19921;-66
2021/06/23 05:57:21;;;;;;;;;;;14.00;89.20;;;;;;5059105;28;19928;-66
2021/06/23 05:59:47;;;;;;;;;;;14.10;89.10;;;;;;5054936;28;20160;-68
2021/06/23 06:02:12;;;;;;;;;;;14.10;89.00;;;;;;5053094;28;19951;-68
2021/06/23 06:04:38;;;;;;;;;;;14.10;89.00;;;;;;5058598;28;20340;-68
2021/06/23 06:07:03;;;;;;;;;;;14.20;88.90;;;;;;5049094;28;20222;-68
2021/06/23 06:09:29;;;;;;;;;;;14.10;89.10;;;;;;5056479;28;20006;-68
2021/06/23 06:11:55;;;;;;;;;;;14.10;88.70;;;;;;5056928;28;19996;-66
2021/06/23 06:14:21;;;;;;;;;;;14.30;89.10;;;;;;5057474;28;19928;-68
2021/06/23 06:16:47;;;;;;;;;;;14.10;88.90;;;;;;5061447;28;19969;-68
2021/06/23 06:19:12;;;;;;;;;;;14.20;89.00;;;;;;5062394;28;20379;-67
2021/06/23 06:21:38;;;;;;;;;;;14.20;88.70;;;;;;5059905;28;19921;-67
2021/06/23 06:24:03;;;;;;;;;;;14.20;88.90;;;;;;5057473;28;20166;-67
2021/06/23 06:26:29;;;;;;;;;;;14.20;88.10;;;;;;5062991;28;19913;-68
2021/06/23 06:28:55;;;;;;;;;;;14.30;88.60;;;;;;5057044;28;19913;-67
2021/06/23 06:31:21;;;;;;;;;;;14.50;88.10;;;;;;5053882;28;19991;-68
2021/06/23 06:33:48;;;;;;;;;;;14.70;87.50;;;;;;5047878;28;19924;-68
2021/06/23 06:36:13;;;;;;;;;;;14.80;87.30;;;;;;5056318;28;19924;-68
2021/06/23 06:38:39;;;;;;;;;;;14.90;86.70;;;;;;5064940;28;19920;-68
2021/06/23 06:41:04;;;;;;;;;;;15.00;86.90;;;;;;5047924;28;19912;-67
2021/06/23 06:43:30;;;;;;;;;;;15.00;85.70;;;;;;5065737;28;19916;-68
2021/06/23 06:45:56;;;;;;;;;;;15.10;84.80;;;;;;5062295;28;20360;-68
2021/06/23 06:48:23;;;;;;;;;;;15.40;84.80;;;;;;5058474;28;19950;-67
2021/06/23 06:50:49;;;;;;;;;;;15.20;85.20;;;;;;5064100;28;20007;-69
2021/06/23 06:53:15;;;;;;;;;;;15.40;85.90;;;;;;5055635;28;19995;-68
2021/06/23 06:55:40;;;;;;;;;;;15.40;85.00;;;;;;5057189;28;20222;-67
2021/06/23 06:58:06;;;;;;;;;;;15.40;84.70;;;;;;5051202;28;20030;-67
2021/06/23 07:00:31;;;;;;;;;;;15.40;84.10;;;;;;5057690;28;20396;-68
2021/06/23 07:02:58;;;;;;;;;;;15.30;84.70;;;;;;5064287;28;19923;-66
2021/06/23 07:05:23;;;;;;;;;;;15.20;85.50;;;;;;5066128;28;19926;-68
2021/06/23 07:07:49;;;;;;;;;;;15.00;85.10;;;;;;5066402;28;19916;-68
2021/06/23 07:10:15;;;;;;;;;;;15.00;85.70;;;;;;5065829;28;19916;-68
2021/06/23 07:12:40;;;;;;;;;;;15.20;86.00;;;;;;5055060;28;19952;-67
2021/06/23 07:15:07;;;;;;;;;;;15.30;85.60;;;;;;5062901;28;19913;-69
2021/06/23 07:17:32;;;;;;;;;;;15.40;85.30;;;;;;5066568;28;19919;-68
2021/06/23 07:19:58;;;;;;;;;;;15.30;85.30;;;;;;5059534;28;19917;-67
2021/06/23 07:22:23;;;;;;;;;;;15.40;85.10;;;;;;5057258;28;19917;-68
2021/06/23 07:24:49;;;;;;;;;;;15.50;85.10;;;;;;5062519;28;20011;-68
2021/06/23 07:27:15;;;;;;;;;;;15.50;84.90;;;;;;5065807;28;19947;-68
2021/06/23 07:29:40;;;;;;;;;;;15.50;84.70;;;;;;5062506;28;19986;-68
2021/06/23 07:32:14;;;;;;;;;;;15.60;84.70;;;;;;5058008;28;20338;-68
2021/06/23 07:37:12;;;;;;;;;;;15.70;82.20;;;;;;5066302;28;20393;-68
2021/06/23 07:39:38;;;;;;;;;;;15.70;83.20;;;;;;5044134;28;19921;-67
2021/06/23 07:42:04;;;;;;;;;;;15.90;82.90;;;;;;5050703;28;19913;-68
2021/06/23 07:44:40;;;;;;;;;;;16.00;81.80;;;;;;5045837;28;20182;-68
2021/06/23 07:47:11;;;;;;;;;;;15.90;82.20;;;;;;5065833;28;20305;-68
2021/06/23 07:49:39;;;;;;;;;;;16.40;81.50;;;;;;5061411;28;20106;-68
2021/06/23 07:52:59;;;;;;;;;;;16.50;80.10;;;;;;5048060;28;19940;-68
2021/06/23 08:11:04;;;;;;;;;;;16.80;78.60;;;;;;5065934;28;20018;-68
2021/06/23 08:13:30;;;;;;;;;;;16.50;80.10;;;;;;5054240;28;19932;-68
2021/06/23 08:15:55;;;;;;;;;;;16.40;80.40;;;;;;5059323;28;19980;-68
2021/06/23 08:18:21;;;;;;;;;;;16.00;80.60;;;;;;5053597;28;19924;-68
2021/06/23 08:20:49;;;;;;;;;;;16.40;79.90;;;;;;5065630;28;20349;-69
2021/06/23 08:23:15;;;;;;;;;;;17.20;79.60;;;;;;5054848;28;19967;-69
2021/06/23 08:25:41;;;;;;;;;;;17.50;75.70;;;;;;5065192;28;20376;-69
2021/06/23 08:28:06;;;;;;;;;;;17.80;77.50;;;;;;5047188;28;19984;-68
2021/06/23 08:30:33;;;;;;;;;;;18.20;73.80;;;;;;5060200;28;19912;-69
2021/06/23 08:33:01;;;;;;;;;;;18.80;72.70;;;;;;5054285;28;19920;-69
2021/06/23 08:35:26;;;;;;;;;;;19.10;68.80;;;;;;5064408;28;20030;-69
2021/06/23 08:37:52;;;;;;;;;;;19.00;69.10;;;;;;5065192;28;20443;-70
2021/06/23 08:40:18;;;;;;;;;;;18.80;69.20;;;;;;5063951;28;19917;-69
2021/06/23 08:42:44;;;;;;;;;;;18.10;69.50;;;;;;5064946;28;19908;-69
2021/06/23 08:45:10;;;;;;;;;;;17.90;70.80;;;;;;5063773;28;19963;-68
2021/06/23 08:47:40;;;;;;;;;;;18.00;71.70;;;;;;5062692;28;19980;-68
2021/06/23 08:50:06;;;;;;;;;;;17.60;72.40;;;;;;5051441;28;20232;-69
2021/06/23 08:52:32;;;;;;;;;;;17.70;73.10;;;;;;5054426;28;20122;-68
2021/06/23 08:54:57;;;;;;;;;;;17.60;73.10;;;;;;5062411;28;20071;-69
2021/06/23 08:57:23;;;;;;;;;;;17.50;74.90;;;;;;5047325;28;19912;-69
2021/06/23 08:59:49;;;;;;;;;;;17.50;74.70;;;;;;5058143;28;20459;-69
2021/06/23 09:02:17;;;;;;;;;;;17.80;74.80;;;;;;5054727;28;20281;-69
2021/06/23 09:04:56;;;;;;;;;;;18.00;73.30;;;;;;5061492;28;19967;-68
2021/06/23 09:07:40;;;;;;;;;;;18.20;72.90;;;;;;5031563;28;19918;-67
2021/06/23 09:10:08;;;;;;;;;;;18.90;70.80;;;;;;5050881;28;19991;-69
2021/06/23 09:12:33;;;;;;;;;;;19.20;68.90;;;;;;5064914;28;19930;-69
2021/06/23 09:15:00;;;;;;;;;;;19.40;68.30;;;;;;5059680;28;19917;-69
2021/06/23 09:17:26;;;;;;;;;;;19.30;67.30;;;;;;5055523;28;19950;-69
2021/06/23 09:19:52;;;;;;;;;;;19.00;69.70;;;;;;5034209;28;19946;-69
2021/06/23 09:22:39;;;;;;;;;;;18.80;69.00;;;;;;5052237;28;20006;-69
2021/06/23 09:25:25;;;;;;;;;;;18.60;70.10;;;;;;5057250;28;19916;-69
2021/06/23 09:27:52;;;;;;;;;;;18.80;71.60;;;;;;5038516;28;19917;-69
2021/06/23 09:30:29;;;;;;;;;;;19.40;68.80;;;;;;5052663;28;20107;-68
2021/06/23 09:33:15;;;;;;;;;;;19.60;68.50;;;;;;5053910;28;19920;-69
2021/06/23 09:35:48;;;;;;;;;;;19.70;66.90;;;;;;5045401;28;19936;-68
2021/06/23 09:38:32;;;;;;;;;;;19.70;67.70;;;;;;5058542;28;20208;-69
2021/06/23 09:40:58;;;;;;;;;;;19.60;68.60;;;;;;5063757;28;19924;-69
2021/06/23 09:43:33;;;;;;;;;;;19.50;67.60;;;;;;5052501;28;20353;-69
2021/06/23 09:45:59;;;;;;;;;;;19.20;68.90;;;;;;5055535;28;20023;-69
2021/06/23 09:48:27;;;;;;;;;;;19.00;68.90;;;;;;5059708;28;20477;-67
2021/06/23 09:51:08;;;;;;;;;;;19.00;69.10;;;;;;5062790;28;19924;-67
2021/06/23 09:53:34;;;;;;;;;;;18.90;69.50;;;;;;5057617;28;20286;-66
2021/06/23 09:55:59;;;;;;;;;;;19.50;68.30;;;;;;5059432;28;19916;-67
2021/06/23 09:58:28;;;;;;;;;;;20.00;64.90;;;;;;5061898;28;19956;-67
2021/06/23 10:01:01;;;;;;;;;;;20.20;65.90;;;;;;5055185;28;19917;-67
2021/06/23 10:03:50;;;;;;;;;;;20.00;64.80;;;;;;5055514;28;19955;-67
2021/06/23 10:06:23;;;;;;;;;;;19.90;62.90;;;;;;5061608;28;20316;-67
2021/06/23 10:08:49;;;;;;;;;;;19.70;63.90;;;;;;5054541;28;19912;-67
2021/06/23 10:11:27;;;;;;;;;;;19.60;63.90;;;;;;5052688;28;20062;-67
2021/06/23 10:13:52;;;;;;;;;;;19.50;65.60;;;;;;5058125;28;19916;-67
2021/06/23 10:16:18;;;;;;;;;;;20.10;62.20;;;;;;5062560;28;20264;-67
2021/06/23 10:18:44;;;;;;;;;;;20.60;61.60;;;;;;5061421;28;20481;-68
2021/06/23 10:21:10;;;;;;;;;;;20.50;60.30;;;;;;5059084;28;19999;-68
2021/06/23 10:23:35;;;;;;;;;;;20.80;61.70;;;;;;5037354;28;19976;-69
2021/06/23 10:26:01;;;;;;;;;;;20.60;62.80;;;;;;5057078;28;20409;-67
2021/06/23 10:28:27;;;;;;;;;;;20.60;61.30;;;;;;5056649;28;20011;-67
2021/06/23 10:30:53;;;;;;;;;;;20.50;63.30;;;;;;5038180;28;19913;-67
2021/06/23 10:33:19;;;;;;;;;;;20.20;62.80;;;;;;5051597;28;19921;-68
2021/06/23 10:35:47;;;;;;;;;;;20.10;59.90;;;;;;5061118;28;19913;-67
2021/06/23 10:38:15;;;;;;;;;;;20.30;60.00;;;;;;5054190;28;19920;-68
2021/06/23 10:40:41;;;;;;;;;;;20.40;58.50;;;;;;5059416;28;19916;-67
2021/06/23 10:43:11;;;;;;;;;;;20.30;60.80;;;;;;5055040;28;19939;-67
2021/06/23 10:45:43;;;;;;;;;;;20.00;60.40;;;;;;5058720;28;20244;-67
2021/06/23 10:48:10;;;;;;;;;;;19.80;60.80;;;;;;5059113;28;19916;-68
2021/06/23 10:50:36;;;;;;;;;;;20.00;61.60;;;;;;5063208;28;19987;-66
2021/06/23 10:53:02;;;;;;;;;;;20.10;61.90;;;;;;5061642;28;19971;-67
2021/06/23 10:55:29;;;;;;;;;;;20.10;61.00;;;;;;5056494;28;19913;-67
2021/06/23 10:57:57;;;;;;;;;;;20.30;62.30;;;;;;5054605;28;19919;-67
2021/06/23 11:00:27;;;;;;;;;;;20.00;62.10;;;;;;5056140;28;19947;-66
2021/06/23 11:03:05;;;;;;;;;;;20.00;62.20;;;;;;5040018;28;19970;-67
2021/06/23 11:05:41;;;;;;;;;;;19.90;61.10;;;;;;5062273;28;20303;-67
2021/06/23 11:08:26;;;;;;;;;;;20.10;60.60;;;;;;5055170;28;20419;-66
2021/06/23 11:10:53;;;;;;;;;;;20.30;61.10;;;;;;5039043;28;19979;-66
2021/06/23 11:13:21;;;;;;;;;;;20.30;61.70;;;;;;5055644;28;19912;-67
2021/06/23 11:15:50;;;;;;;;;;;20.00;59.30;;;;;;5045857;28;19928;-67
2021/06/23 11:18:16;;;;;;;;;;;20.20;59.40;;;;;;5045275;28;19931;-67
2021/06/23 11:20:42;;;;;;;;;;;20.30;61.30;;;;;;5053382;28;19920;-66
2021/06/23 11:23:28;;;;;;;;;;;20.40;60.60;;;;;;5055583;28;19955;-67
2021/06/23 11:25:53;;;;;;;;;;;20.40;60.70;;;;;;5058119;28;20324;-66
2021/06/23 11:28:19;;;;;;;;;;;20.00;59.10;;;;;;5065811;28;20094;-67
2021/06/23 11:30:44;;;;;;;;;;;20.40;59.00;;;;;;5066153;28;19912;-67
2021/06/23 11:33:28;;;;;;;;;;;20.00;60.90;;;;;;5057583;28;19916;-67
2021/06/23 11:35:57;;;;;;;;;;;20.20;60.90;;;;;;5058335;28;20020;-66
2021/06/23 11:38:23;;;;;;;;;;;20.20;60.50;;;;;;5056812;28;20178;-68
2021/06/23 11:40:50;;;;;;;;;;;20.30;61.20;;;;;;5042014;28;19949;-66
2021/06/23 11:43:16;;;;;;;;;;;20.50;62.50;;;;;;5061337;28;19913;-68
2021/06/23 11:45:42;;;;;;;;;;;20.50;60.10;;;;;;5064700;28;20325;-68
2021/06/23 11:48:07;;;;;;;;;;;20.50;61.90;;;;;;5054350;28;19920;-67
2021/06/23 11:50:33;;;;;;;;;;;20.70;60.80;;;;;;5056990;28;20341;-67
2021/06/23 11:52:58;;;;;;;;;;;21.00;61.80;;;;;;5058932;28;20039;-68
2021/06/23 11:55:24;;;;;;;;;;;21.20;57.90;;;;;;5064600;28;20410;-67
2021/06/23 11:57:50;;;;;;;;;;;21.50;55.90;;;;;;5049799;28;19924;-68
2021/06/23 12:00:16;;;;;;;;;;;21.90;55.70;;;;;;5061479;28;20307;-68
2021/06/23 12:02:42;;;;;;;;;;;22.90;52.60;;;;;;5040202;28;19913;-68
2021/06/23 12:05:07;;;;;;;;;;;23.60;50.10;;;;;;5060848;28;19913;-67
2021/06/23 12:07:33;;;;;;;;;;;23.10;50.90;;;;;;5056241;28;19961;-68
2021/06/23 12:10:01;;;;;;;;;;;23.20;52.60;;;;;;5059533;28;19964;-67
2021/06/23 12:12:26;;;;;;;;;;;22.40;53.50;;;;;;5055054;28;20602;-67
2021/06/23 12:14:52;;;;;;;;;;;22.00;54.90;;;;;;5053439;28;19925;-67
2021/06/23 12:17:17;;;;;;;;;;;22.00;54.30;;;;;;5057212;28;19974;-67
2021/06/23 12:19:45;;;;;;;;;;;21.50;56.80;;;;;;5055308;28;20372;-65
2021/06/23 12:22:11;;;;;;;;;;;21.20;56.30;;;;;;5055629;28;19947;-67
2021/06/23 12:24:36;;;;;;;;;;;21.30;58.50;;;;;;5059580;28;19979;-67
2021/06/23 12:27:02;;;;;;;;;;;20.70;60.00;;;;;;5053998;28;20369;-66
2021/06/23 12:29:27;;;;;;;;;;;20.50;60.30;;;;;;5058347;28;19917;-67
2021/06/23 12:31:55;;;;;;;;;;;20.40;59.80;;;;;;5059667;28;19916;-67
2021/06/23 12:34:20;;;;;;;;;;;20.20;60.90;;;;;;5060015;28;20377;-67
2021/06/23 12:36:46;;;;;;;;;;;20.00;60.50;;;;;;5057303;28;19913;-67
2021/06/23 12:39:11;;;;;;;;;;;20.00;61.30;;;;;;5059192;28;19916;-66
2021/06/23 12:41:37;;;;;;;;;;;20.00;60.50;;;;;;5054680;28;19979;-66
2021/06/23 12:44:02;;;;;;;;;;;20.10;60.70;;;;;;5056724;28;20011;-67
2021/06/23 12:46:28;;;;;;;;;;;20.00;61.00;;;;;;5056804;28;20009;-67
2021/06/23 12:48:53;;;;;;;;;;;19.90;62.50;;;;;;5056946;28;19969;-66
2021/06/23 12:51:19;;;;;;;;;;;20.00;60.40;;;;;;5057544;28;20011;-67
2021/06/23 12:53:44;;;;;;;;;;;19.90;60.30;;;;;;5056735;28;20305;-67
2021/06/23 12:56:10;;;;;;;;;;;19.60;60.70;;;;;;5057428;28;20332;-67
2021/06/23 12:58:35;;;;;;;;;;;19.90;61.40;;;;;;5058528;28;19921;-67
2021/06/23 13:01:02;;;;;;;;;;;19.80;61.00;;;;;;5057731;28;19913;-67
2021/06/23 13:03:27;;;;;;;;;;;19.80;62.60;;;;;;5036605;28;19951;-67
2021/06/23 13:05:57;;;;;;;;;;;20.00;62.10;;;;;;5060334;28;19944;-67
2021/06/23 13:08:23;;;;;;;;;;;19.90;61.50;;;;;;5059137;28;20060;-67
2021/06/23 13:10:48;;;;;;;;;;;20.00;60.90;;;;;;5053387;28;19923;-67
2021/06/23 13:13:14;;;;;;;;;;;20.00;62.10;;;;;;5054444;28;20375;-67
2021/06/23 13:15:40;;;;;;;;;;;19.90;63.60;;;;;;5053390;28;19928;-66
2021/06/23 13:18:06;;;;;;;;;;;20.00;62.90;;;;;;5059928;28;19928;-67
2021/06/23 13:20:34;;;;;;;;;;;20.20;63.60;;;;;;5059210;28;20356;-67
2021/06/23 13:23:00;;;;;;;;;;;20.20;61.70;;;;;;5035851;28;20012;-67
2021/06/23 13:25:25;;;;;;;;;;;20.10;64.20;;;;;;5052739;28;19912;-67
2021/06/23 13:27:51;;;;;;;;;;;20.00;62.20;;;;;;5052821;28;19952;-67
2021/06/23 13:30:17;;;;;;;;;;;19.90;60.80;;;;;;5061971;28;20382;-67
2021/06/23 13:32:42;;;;;;;;;;;19.90;63.60;;;;;;5059997;28;19970;-66
2021/06/23 13:35:09;;;;;;;;;;;19.90;63.60;;;;;;5060193;28;19920;-66
2021/06/23 13:37:35;;;;;;;;;;;20.00;63.30;;;;;;5058243;28;20363;-67
2021/06/23 13:40:00;;;;;;;;;;;19.90;61.90;;;;;;5059236;28;19916;-67
2021/06/23 13:42:26;;;;;;;;;;;19.80;62.70;;;;;;5059861;28;20011;-67
2021/06/23 13:44:51;;;;;;;;;;;19.90;61.50;;;;;;5058208;28;19912;-67
2021/06/23 13:47:17;;;;;;;;;;;19.70;61.40;;;;;;5058317;28;19916;-67
2021/06/23 13:49:43;;;;;;;;;;;19.70;61.80;;;;;;5056653;28;20007;-65
2021/06/23 13:52:08;;;;;;;;;;;19.80;63.10;;;;;;5053883;28;19963;-66
2021/06/23 13:54:34;;;;;;;;;;;19.80;64.30;;;;;;5055119;28;20175;-66
2021/06/23 13:57:00;;;;;;;;;;;19.60;62.40;;;;;;5059335;28;20357;-67
2021/06/23 13:59:25;;;;;;;;;;;19.70;63.20;;;;;;5055830;28;19994;-67
2021/06/23 14:01:51;;;;;;;;;;;19.80;63.60;;;;;;5056543;28;19928;-67
2021/06/23 14:04:16;;;;;;;;;;;19.70;62.10;;;;;;5056718;28;20004;-67
2021/06/23 14:06:42;;;;;;;;;;;19.80;63.30;;;;;;5057226;28;20292;-66
2021/06/23 14:09:07;;;;;;;;;;;19.60;63.50;;;;;;5057058;28;19917;-67
2021/06/23 14:11:33;;;;;;;;;;;19.60;63.30;;;;;;5050575;28;20256;-68
2021/06/23 14:13:58;;;;;;;;;;;19.50;62.00;;;;;;5055942;28;20353;-67
2021/06/23 14:16:24;;;;;;;;;;;19.50;64.00;;;;;;5053818;28;19916;-67
2021/06/23 14:18:49;;;;;;;;;;;19.40;62.50;;;;;;5051343;28;20266;-67
2021/06/23 14:21:15;;;;;;;;;;;19.30;61.90;;;;;;5049793;28;20219;-68
2021/06/23 14:23:40;;;;;;;;;;;19.40;63.30;;;;;;5053973;28;20954;-67
2021/06/23 14:26:06;;;;;;;;;;;19.50;64.00;;;;;;5054526;28;19928;-67
2021/06/23 14:28:32;;;;;;;;;;;19.50;63.80;;;;;;5051169;28;19987;-67
2021/06/23 14:30:58;;;;;;;;;;;19.60;63.10;;;;;;5057988;28;19912;-67
2021/06/23 14:33:23;;;;;;;;;;;19.60;64.70;;;;;;5058540;28;19925;-68
2021/06/23 14:35:49;;;;;;;;;;;19.70;64.90;;;;;;5056611;28;19966;-67